sensor_id;sensor_type;location;lat;lon;timestamp;temperature;humidity
25440;DHT22;13365;52.208;5.488;2023-05-10T00:01:04;19.40;99.90
25440;DHT22;13365;52.208;5.488;2023-05-10T00:03:29;19.40;99.90
25440;DHT22;13365;52.208;5.488;2023-05-10T00:05:55;19.40;99.90
25440;DHT22;13365;52.208;5.488;2023-05-10T00:08:20;19.50;99.90
25440;DHT22;13365;52.208;5.488;2023-05-10T00:10:46;19.50;99.90
25440;DHT22;13365;52.208;5.488;2023-05-10T00:13:12;19.50;99.90
25440;DHT22;13365;52.208;5.488;2023-05-10T00:15:37;19.50;99.90
25440;DHT22;13365;52.208;5.488;2023-05-10T00:18:03;19.50;99.90
25440;DHT22;13365;52.208;5.488;2023-05-10T00:20:28;19.40;99.90
25440;DHT22;13365;52.208;5.488;2023-05-10T00:22:55;19.40;99.90
25440;DHT22;13365;52.208;5.488;2023-05-10T00:25:20;19.40;99.90
25440;DHT22;13365;52.208;5.488;2023-05-10T00:27:47;19.40;99.90
25440;DHT22;13365;52.208;5.488;2023-05-10T00:30:13;19.40;99.90
25440;DHT22;13365;52.208;5.488;2023-05-10T00:32:38;19.50;99.90
25440;DHT22;13365;52.208;5.488;2023-05-10T00:35:04;19.50;99.90
25440;DHT22;13365;52.208;5.488;2023-05-10T00:37:30;19.40;99.90
25440;DHT22;13365;52.208;5.488;2023-05-10T00:39:56;19.30;99.90
25440;DHT22;13365;52.208;5.488;2023-05-10T00:42:21;19.30;99.90
25440;DHT22;13365;52.208;5.488;2023-05-10T00:44:47;19.30;99.90
25440;DHT22;13365;52.208;5.488;2023-05-10T00:47:13;19.30;99.90
25440;DHT22;13365;52.208;5.488;2023-05-10T00:49:38;19.30;99.90
25440;DHT22;13365;52.208;5.488;2023-05-10T00:52:04;19.30;99.90
25440;DHT22;13365;52.208;5.488;2023-05-10T00:54:30;19.30;99.90
25440;DHT22;13365;52.208;5.488;2023-05-10T00:56:55;19.30;99.90
25440;DHT22;13365;52.208;5.488;2023-05-10T00:59:22;19.40;99.90
25440;DHT22;13365;52.208;5.488;2023-05-10T01:01:48;19.30;99.90
25440;DHT22;13365;52.208;5.488;2023-05-10T01:04:14;19.40;99.90
25440;DHT22;13365;52.208;5.488;2023-05-10T01:06:43;19.30;99.90
25440;DHT22;13365;52.208;5.488;2023-05-10T01:09:08;19.30;99.90
25440;DHT22;13365;52.208;5.488;2023-05-10T01:11:35;19.30;99.90
25440;DHT22;13365;52.208;5.488;2023-05-10T01:14:02;19.20;99.90
25440;DHT22;13365;52.208;5.488;2023-05-10T01:16:29;19.10;99.90
25440;DHT22;13365;52.208;5.488;2023-05-10T01:18:55;19.10;99.90
25440;DHT22;13365;52.208;5.488;2023-05-10T01:21:36;19.20;99.90
25440;DHT22;13365;52.208;5.488;2023-05-10T01:27:02;19.20;99.90
25440;DHT22;13365;52.208;5.488;2023-05-10T01:32:21;19.10;99.90
25440;DHT22;13365;52.208;5.488;2023-05-10T01:35:02;19.20;99.90
25440;DHT22;13365;52.208;5.488;2023-05-10T01:37:45;19.20;99.90
25440;DHT22;13365;52.208;5.488;2023-05-10T01:40:35;19.10;99.90
25440;DHT22;13365;52.208;5.488;2023-05-10T01:43:05;19.30;99.90
25440;DHT22;13365;52.208;5.488;2023-05-10T01:45:41;19.20;99.90
25440;DHT22;13365;52.208;5.488;2023-05-10T01:48:11;19.20;99.90
25440;DHT22;13365;52.208;5.488;2023-05-10T01:50:41;19.30;99.90
25440;DHT22;13365;52.208;5.488;2023-05-10T01:53:09;19.30;99.90
25440;DHT22;13365;52.208;5.488;2023-05-10T01:55:52;19.40;99.90
25440;DHT22;13365;52.208;5.488;2023-05-10T01:58:22;19.40;99.90
25440;DHT22;13365;52.208;5.488;2023-05-10T02:00:49;19.20;99.90
25440;DHT22;13365;52.208;5.488;2023-05-10T02:03:16;19.20;99.90
25440;DHT22;13365;52.208;5.488;2023-05-10T02:05:44;19.30;99.90
25440;DHT22;13365;52.208;5.488;2023-05-10T02:08:12;19.30;99.90
25440;DHT22;13365;52.208;5.488;2023-05-10T02:10:39;19.00;99.90
25440;DHT22;13365;52.208;5.488;2023-05-10T02:13:07;19.10;99.90
25440;DHT22;13365;52.208;5.488;2023-05-10T02:15:34;19.20;99.90
25440;DHT22;13365;52.208;5.488;2023-05-10T02:18:00;19.20;99.90
25440;DHT22;13365;52.208;5.488;2023-05-10T02:20:28;19.10;99.90
25440;DHT22;13365;52.208;5.488;2023-05-10T02:22:55;19.00;99.90
25440;DHT22;13365;52.208;5.488;2023-05-10T02:25:23;19.00;99.90
25440;DHT22;13365;52.208;5.488;2023-05-10T02:27:49;18.80;99.90
25440;DHT22;13365;52.208;5.488;2023-05-10T02:30:16;18.50;99.90
25440;DHT22;13365;52.208;5.488;2023-05-10T02:32:44;18.50;99.90
25440;DHT22;13365;52.208;5.488;2023-05-10T02:35:10;18.30;99.90
25440;DHT22;13365;52.208;5.488;2023-05-10T02:37:37;18.40;99.90
25440;DHT22;13365;52.208;5.488;2023-05-10T02:40:04;18.40;99.90
25440;DHT22;13365;52.208;5.488;2023-05-10T02:42:33;18.40;99.90
25440;DHT22;13365;52.208;5.488;2023-05-10T02:45:02;18.60;99.90
25440;DHT22;13365;52.208;5.488;2023-05-10T02:47:30;18.30;99.90
25440;DHT22;13365;52.208;5.488;2023-05-10T02:49:56;18.40;99.90
25440;DHT22;13365;52.208;5.488;2023-05-10T02:52:25;18.20;99.90
25440;DHT22;13365;52.208;5.488;2023-05-10T02:54:55;18.00;99.90
25440;DHT22;13365;52.208;5.488;2023-05-10T02:57:27;18.30;99.90
25440;DHT22;13365;52.208;5.488;2023-05-10T02:59:54;18.40;99.90
25440;DHT22;13365;52.208;5.488;2023-05-10T03:02:20;18.30;99.90
25440;DHT22;13365;52.208;5.488;2023-05-10T03:04:46;18.70;99.90
25440;DHT22;13365;52.208;5.488;2023-05-10T03:07:12;18.80;99.90
25440;DHT22;13365;52.208;5.488;2023-05-10T03:09:38;18.80;99.90
25440;DHT22;13365;52.208;5.488;2023-05-10T03:18:01;18.60;99.90
25440;DHT22;13365;52.208;5.488;2023-05-10T03:20:42;18.00;99.90
25440;DHT22;13365;52.208;5.488;2023-05-10T03:25:37;17.80;99.90
25440;DHT22;13365;52.208;5.488;2023-05-10T03:28:05;17.80;99.90
25440;DHT22;13365;52.208;5.488;2023-05-10T03:30:31;17.70;99.90
25440;DHT22;13365;52.208;5.488;2023-05-10T03:32:58;17.60;99.90
25440;DHT22;13365;52.208;5.488;2023-05-10T03:35:29;17.60;99.90
25440;DHT22;13365;52.208;5.488;2023-05-10T03:37:54;17.40;99.90
25440;DHT22;13365;52.208;5.488;2023-05-10T03:40:20;17.40;99.90
25440;DHT22;13365;52.208;5.488;2023-05-10T03:42:45;17.30;99.90
25440;DHT22;13365;52.208;5.488;2023-05-10T03:45:11;17.60;99.90
25440;DHT22;13365;52.208;5.488;2023-05-10T03:47:36;17.80;99.90
25440;DHT22;13365;52.208;5.488;2023-05-10T03:50:02;17.90;99.90
25440;DHT22;13365;52.208;5.488;2023-05-10T03:52:28;17.70;99.90
25440;DHT22;13365;52.208;5.488;2023-05-10T03:54:53;17.60;99.90
25440;DHT22;13365;52.208;5.488;2023-05-10T03:57:19;17.40;99.90
25440;DHT22;13365;52.208;5.488;2023-05-10T03:59:44;17.30;99.90
25440;DHT22;13365;52.208;5.488;2023-05-10T04:02:10;17.30;99.90
25440;DHT22;13365;52.208;5.488;2023-05-10T04:04:36;17.50;99.90
25440;DHT22;13365;52.208;5.488;2023-05-10T04:07:01;17.90;99.90
25440;DHT22;13365;52.208;5.488;2023-05-10T04:09:27;17.70;99.90
25440;DHT22;13365;52.208;5.488;2023-05-10T04:11:52;17.40;99.90
25440;DHT22;13365;52.208;5.488;2023-05-10T04:14:18;17.30;99.90
25440;DHT22;13365;52.208;5.488;2023-05-10T04:16:43;17.60;99.90
25440;DHT22;13365;52.208;5.488;2023-05-10T04:19:09;17.70;99.90
25440;DHT22;13365;52.208;5.488;2023-05-10T04:21:34;18.00;99.90
25440;DHT22;13365;52.208;5.488;2023-05-10T04:24:00;17.90;99.90
25440;DHT22;13365;52.208;5.488;2023-05-10T04:26:25;17.50;99.90
25440;DHT22;13365;52.208;5.488;2023-05-10T04:28:51;17.30;99.90
25440;DHT22;13365;52.208;5.488;2023-05-10T04:31:17;17.20;99.90
25440;DHT22;13365;52.208;5.488;2023-05-10T04:33:42;17.20;99.90
25440;DHT22;13365;52.208;5.488;2023-05-10T04:36:08;17.20;99.90
25440;DHT22;13365;52.208;5.488;2023-05-10T04:38:34;17.10;99.90
25440;DHT22;13365;52.208;5.488;2023-05-10T04:41:07;17.10;99.90
25440;DHT22;13365;52.208;5.488;2023-05-10T04:43:33;17.20;99.90
25440;DHT22;13365;52.208;5.488;2023-05-10T04:45:58;16.80;99.90
25440;DHT22;13365;52.208;5.488;2023-05-10T04:48:24;16.80;99.90
25440;DHT22;13365;52.208;5.488;2023-05-10T04:50:49;16.60;99.90
25440;DHT22;13365;52.208;5.488;2023-05-10T04:53:15;16.40;99.90
25440;DHT22;13365;52.208;5.488;2023-05-10T04:55:40;16.50;99.90
25440;DHT22;13365;52.208;5.488;2023-05-10T04:58:06;16.60;99.90
25440;DHT22;13365;52.208;5.488;2023-05-10T05:00:33;16.20;99.90
25440;DHT22;13365;52.208;5.488;2023-05-10T05:02:58;16.30;99.90
25440;DHT22;13365;52.208;5.488;2023-05-10T05:05:24;16.90;99.90
25440;DHT22;13365;52.208;5.488;2023-05-10T05:07:50;17.00;99.90
25440;DHT22;13365;52.208;5.488;2023-05-10T05:10:16;16.60;99.90
25440;DHT22;13365;52.208;5.488;2023-05-10T05:12:42;16.90;99.90
25440;DHT22;13365;52.208;5.488;2023-05-10T05:15:07;17.10;99.90
25440;DHT22;13365;52.208;5.488;2023-05-10T05:17:35;17.30;99.90
25440;DHT22;13365;52.208;5.488;2023-05-10T05:20:00;17.20;99.90
25440;DHT22;13365;52.208;5.488;2023-05-10T05:22:26;17.10;99.90
25440;DHT22;13365;52.208;5.488;2023-05-10T05:24:55;17.10;99.90
25440;DHT22;13365;52.208;5.488;2023-05-10T05:27:20;17.10;99.90
25440;DHT22;13365;52.208;5.488;2023-05-10T05:29:52;17.20;99.90
25440;DHT22;13365;52.208;5.488;2023-05-10T05:32:18;17.30;99.90
25440;DHT22;13365;52.208;5.488;2023-05-10T05:34:47;17.20;99.90
25440;DHT22;13365;52.208;5.488;2023-05-10T05:37:17;17.30;99.90
25440;DHT22;13365;52.208;5.488;2023-05-10T05:39:43;17.30;99.90
25440;DHT22;13365;52.208;5.488;2023-05-10T05:42:09;17.30;99.90
25440;DHT22;13365;52.208;5.488;2023-05-10T05:44:35;17.40;99.90
25440;DHT22;13365;52.208;5.488;2023-05-10T05:47:00;17.40;99.90
25440;DHT22;13365;52.208;5.488;2023-05-10T05:49:26;17.20;99.90
25440;DHT22;13365;52.208;5.488;2023-05-10T05:51:51;16.80;99.90
25440;DHT22;13365;52.208;5.488;2023-05-10T05:54:17;16.80;99.90
25440;DHT22;13365;52.208;5.488;2023-05-10T05:56:43;16.70;99.90
25440;DHT22;13365;52.208;5.488;2023-05-10T05:59:09;16.50;99.90
25440;DHT22;13365;52.208;5.488;2023-05-10T06:01:35;16.40;99.90
25440;DHT22;13365;52.208;5.488;2023-05-10T06:04:01;16.30;99.90
25440;DHT22;13365;52.208;5.488;2023-05-10T06:06:26;16.40;99.90
25440;DHT22;13365;52.208;5.488;2023-05-10T06:08:53;16.30;99.90
25440;DHT22;13365;52.208;5.488;2023-05-10T06:11:18;16.50;99.90
25440;DHT22;13365;52.208;5.488;2023-05-10T06:13:44;16.40;99.90
25440;DHT22;13365;52.208;5.488;2023-05-10T06:16:09;16.40;99.90
25440;DHT22;13365;52.208;5.488;2023-05-10T06:18:35;16.70;99.90
25440;DHT22;13365;52.208;5.488;2023-05-10T06:21:01;16.60;99.90
25440;DHT22;13365;52.208;5.488;2023-05-10T06:23:27;16.50;99.90
25440;DHT22;13365;52.208;5.488;2023-05-10T06:25:52;16.60;99.90
25440;DHT22;13365;52.208;5.488;2023-05-10T06:28:18;16.30;99.90
25440;DHT22;13365;52.208;5.488;2023-05-10T06:30:44;16.30;99.90
25440;DHT22;13365;52.208;5.488;2023-05-10T06:33:09;16.40;99.90
25440;DHT22;13365;52.208;5.488;2023-05-10T06:35:35;16.40;99.90
25440;DHT22;13365;52.208;5.488;2023-05-10T06:38:02;16.30;99.90
25440;DHT22;13365;52.208;5.488;2023-05-10T06:40:27;16.30;99.90
25440;DHT22;13365;52.208;5.488;2023-05-10T06:42:53;16.60;99.90
25440;DHT22;13365;52.208;5.488;2023-05-10T06:45:18;16.60;99.90
25440;DHT22;13365;52.208;5.488;2023-05-10T06:47:44;16.40;99.90
25440;DHT22;13365;52.208;5.488;2023-05-10T06:50:10;16.40;99.90
25440;DHT22;13365;52.208;5.488;2023-05-10T06:52:39;16.30;99.90
25440;DHT22;13365;52.208;5.488;2023-05-10T06:55:05;16.60;99.90
25440;DHT22;13365;52.208;5.488;2023-05-10T06:57:31;16.30;99.90
25440;DHT22;13365;52.208;5.488;2023-05-10T06:59:58;16.30;99.90
25440;DHT22;13365;52.208;5.488;2023-05-10T07:02:24;16.30;99.90
25440;DHT22;13365;52.208;5.488;2023-05-10T07:04:50;16.30;99.90
25440;DHT22;13365;52.208;5.488;2023-05-10T07:07:17;16.30;99.90
25440;DHT22;13365;52.208;5.488;2023-05-10T07:09:42;16.40;99.90
25440;DHT22;13365;52.208;5.488;2023-05-10T07:12:08;16.30;99.90
25440;DHT22;13365;52.208;5.488;2023-05-10T07:14:33;16.40;99.90
25440;DHT22;13365;52.208;5.488;2023-05-10T07:16:59;16.70;99.90
25440;DHT22;13365;52.208;5.488;2023-05-10T07:19:24;16.70;99.90
25440;DHT22;13365;52.208;5.488;2023-05-10T07:21:50;16.90;99.90
25440;DHT22;13365;52.208;5.488;2023-05-10T07:24:16;16.80;99.90
25440;DHT22;13365;52.208;5.488;2023-05-10T07:26:41;16.90;99.90
25440;DHT22;13365;52.208;5.488;2023-05-10T07:29:07;17.00;99.90
25440;DHT22;13365;52.208;5.488;2023-05-10T07:31:32;16.80;99.90
25440;DHT22;13365;52.208;5.488;2023-05-10T07:33:58;17.00;99.90
25440;DHT22;13365;52.208;5.488;2023-05-10T07:36:23;17.00;99.90
25440;DHT22;13365;52.208;5.488;2023-05-10T07:38:49;17.00;99.90
25440;DHT22;13365;52.208;5.488;2023-05-10T07:41:15;16.70;99.90
25440;DHT22;13365;52.208;5.488;2023-05-10T07:43:40;16.60;99.90
25440;DHT22;13365;52.208;5.488;2023-05-10T07:46:06;16.50;99.90
25440;DHT22;13365;52.208;5.488;2023-05-10T07:48:32;16.50;99.90
25440;DHT22;13365;52.208;5.488;2023-05-10T07:50:57;16.60;99.90
25440;DHT22;13365;52.208;5.488;2023-05-10T07:53:23;16.80;99.90
25440;DHT22;13365;52.208;5.488;2023-05-10T07:55:54;17.40;99.90
25440;DHT22;13365;52.208;5.488;2023-05-10T07:58:22;17.40;99.90
25440;DHT22;13365;52.208;5.488;2023-05-10T08:00:47;17.20;99.90
25440;DHT22;13365;52.208;5.488;2023-05-10T08:03:14;17.70;99.90
25440;DHT22;13365;52.208;5.488;2023-05-10T08:05:40;17.70;99.90
25440;DHT22;13365;52.208;5.488;2023-05-10T08:08:06;17.70;99.90
25440;DHT22;13365;52.208;5.488;2023-05-10T08:10:31;17.90;99.90
25440;DHT22;13365;52.208;5.488;2023-05-10T08:12:57;17.90;99.90
25440;DHT22;13365;52.208;5.488;2023-05-10T08:15:24;17.80;99.90
25440;DHT22;13365;52.208;5.488;2023-05-10T08:17:51;17.80;99.90
25440;DHT22;13365;52.208;5.488;2023-05-10T08:20:17;17.50;99.90
25440;DHT22;13365;52.208;5.488;2023-05-10T08:22:45;17.30;99.90
25440;DHT22;13365;52.208;5.488;2023-05-10T08:25:10;17.20;99.90
25440;DHT22;13365;52.208;5.488;2023-05-10T08:27:36;17.00;99.90
25440;DHT22;13365;52.208;5.488;2023-05-10T08:30:02;17.10;99.90
25440;DHT22;13365;52.208;5.488;2023-05-10T08:32:27;17.10;99.90
25440;DHT22;13365;52.208;5.488;2023-05-10T08:34:53;17.00;99.90
25440;DHT22;13365;52.208;5.488;2023-05-10T08:37:18;17.30;99.90
25440;DHT22;13365;52.208;5.488;2023-05-10T08:39:44;17.40;99.90
25440;DHT22;13365;52.208;5.488;2023-05-10T08:42:11;17.60;99.90
25440;DHT22;13365;52.208;5.488;2023-05-10T08:44:37;17.50;99.90
25440;DHT22;13365;52.208;5.488;2023-05-10T08:47:05;17.30;99.90
25440;DHT22;13365;52.208;5.488;2023-05-10T08:49:34;17.70;99.90
25440;DHT22;13365;52.208;5.488;2023-05-10T08:52:03;18.00;99.90
25440;DHT22;13365;52.208;5.488;2023-05-10T08:54:31;18.00;99.90
25440;DHT22;13365;52.208;5.488;2023-05-10T08:56:56;17.90;99.90
25440;DHT22;13365;52.208;5.488;2023-05-10T08:59:22;18.00;99.90
25440;DHT22;13365;52.208;5.488;2023-05-10T09:01:48;17.80;99.90
25440;DHT22;13365;52.208;5.488;2023-05-10T09:04:15;17.70;99.90
25440;DHT22;13365;52.208;5.488;2023-05-10T09:06:41;17.50;99.90
25440;DHT22;13365;52.208;5.488;2023-05-10T09:09:07;17.30;99.90
25440;DHT22;13365;52.208;5.488;2023-05-10T09:11:33;17.40;99.90
25440;DHT22;13365;52.208;5.488;2023-05-10T09:14:00;17.70;99.90
25440;DHT22;13365;52.208;5.488;2023-05-10T09:16:26;18.00;99.90
25440;DHT22;13365;52.208;5.488;2023-05-10T09:18:51;17.90;99.90
25440;DHT22;13365;52.208;5.488;2023-05-10T09:21:18;18.10;99.90
25440;DHT22;13365;52.208;5.488;2023-05-10T09:23:47;18.70;99.90
25440;DHT22;13365;52.208;5.488;2023-05-10T09:26:15;19.10;99.90
25440;DHT22;13365;52.208;5.488;2023-05-10T09:28:55;19.50;99.90
25440;DHT22;13365;52.208;5.488;2023-05-10T09:31:21;19.60;99.90
25440;DHT22;13365;52.208;5.488;2023-05-10T09:33:48;19.80;99.90
25440;DHT22;13365;52.208;5.488;2023-05-10T09:36:14;19.70;99.90
25440;DHT22;13365;52.208;5.488;2023-05-10T09:38:48;20.00;99.90
25440;DHT22;13365;52.208;5.488;2023-05-10T09:41:23;20.20;99.60
25440;DHT22;13365;52.208;5.488;2023-05-10T09:43:49;20.50;99.10
25440;DHT22;13365;52.208;5.488;2023-05-10T09:46:15;20.60;98.30
25440;DHT22;13365;52.208;5.488;2023-05-10T09:48:48;20.60;98.00
25440;DHT22;13365;52.208;5.488;2023-05-10T09:51:23;20.80;98.00
25440;DHT22;13365;52.208;5.488;2023-05-10T09:54:12;21.00;97.50
25440;DHT22;13365;52.208;5.488;2023-05-10T09:56:38;21.20;97.20
25440;DHT22;13365;52.208;5.488;2023-05-10T09:59:07;21.40;96.20
25440;DHT22;13365;52.208;5.488;2023-05-10T10:01:33;21.40;95.90
25440;DHT22;13365;52.208;5.488;2023-05-10T10:04:05;21.20;95.90
25440;DHT22;13365;52.208;5.488;2023-05-10T10:06:38;21.40;96.50
25440;DHT22;13365;52.208;5.488;2023-05-10T10:09:05;20.50;95.50
25440;DHT22;13365;52.208;5.488;2023-05-10T10:11:31;20.40;96.40
25440;DHT22;13365;52.208;5.488;2023-05-10T10:13:58;20.30;97.00
25440;DHT22;13365;52.208;5.488;2023-05-10T10:16:24;20.20;97.50
25440;DHT22;13365;52.208;5.488;2023-05-10T10:18:50;20.50;97.00
25440;DHT22;13365;52.208;5.488;2023-05-10T10:21:15;20.70;97.50
25440;DHT22;13365;52.208;5.488;2023-05-10T10:23:41;21.00;96.90
25440;DHT22;13365;52.208;5.488;2023-05-10T10:26:08;21.20;96.90
25440;DHT22;13365;52.208;5.488;2023-05-10T10:29:15;21.20;95.90
25440;DHT22;13365;52.208;5.488;2023-05-10T10:34:47;20.70;95.50
25440;DHT22;13365;52.208;5.488;2023-05-10T10:37:12;20.80;95.50
25440;DHT22;13365;52.208;5.488;2023-05-10T10:39:38;20.70;95.80
25440;DHT22;13365;52.208;5.488;2023-05-10T10:42:04;20.60;96.30
25440;DHT22;13365;52.208;5.488;2023-05-10T10:47:03;21.20;95.30
25440;DHT22;13365;52.208;5.488;2023-05-10T10:49:33;21.30;95.10
25440;DHT22;13365;52.208;5.488;2023-05-10T10:52:22;21.30;94.70
25440;DHT22;13365;52.208;5.488;2023-05-10T10:54:53;21.30;95.20
25440;DHT22;13365;52.208;5.488;2023-05-10T10:57:19;21.20;94.90
25440;DHT22;13365;52.208;5.488;2023-05-10T10:59:47;21.50;94.80
25440;DHT22;13365;52.208;5.488;2023-05-10T11:02:42;21.70;95.10
25440;DHT22;13365;52.208;5.488;2023-05-10T11:07:55;21.80;93.20
25440;DHT22;13365;52.208;5.488;2023-05-10T11:10:22;21.50;93.90
25440;DHT22;13365;52.208;5.488;2023-05-10T11:13:04;21.50;93.80
25440;DHT22;13365;52.208;5.488;2023-05-10T11:15:32;21.00;95.00
25440;DHT22;13365;52.208;5.488;2023-05-10T11:17:58;21.10;95.70
25440;DHT22;13365;52.208;5.488;2023-05-10T11:20:27;21.50;96.20
25440;DHT22;13365;52.208;5.488;2023-05-10T11:23:10;21.50;94.90
25440;DHT22;13365;52.208;5.488;2023-05-10T11:25:44;21.20;94.50
25440;DHT22;13365;52.208;5.488;2023-05-10T11:28:11;20.90;94.90
25440;DHT22;13365;52.208;5.488;2023-05-10T11:30:38;20.90;94.80
25440;DHT22;13365;52.208;5.488;2023-05-10T11:33:05;20.90;95.10
25440;DHT22;13365;52.208;5.488;2023-05-10T11:35:37;20.70;96.00
25440;DHT22;13365;52.208;5.488;2023-05-10T11:38:09;20.90;95.50
25440;DHT22;13365;52.208;5.488;2023-05-10T11:40:36;20.70;95.20
25440;DHT22;13365;52.208;5.488;2023-05-10T11:43:03;20.20;95.50
25440;DHT22;13365;52.208;5.488;2023-05-10T11:45:29;20.20;96.80
25440;DHT22;13365;52.208;5.488;2023-05-10T11:47:57;20.50;97.00
25440;DHT22;13365;52.208;5.488;2023-05-10T11:50:23;21.00;96.10
25440;DHT22;13365;52.208;5.488;2023-05-10T11:52:53;21.10;95.80
25440;DHT22;13365;52.208;5.488;2023-05-10T11:55:19;21.50;96.50
25440;DHT22;13365;52.208;5.488;2023-05-10T11:57:44;21.40;95.30
25440;DHT22;13365;52.208;5.488;2023-05-10T12:00:12;21.50;96.20
25440;DHT22;13365;52.208;5.488;2023-05-10T12:02:37;21.50;94.90
25440;DHT22;13365;52.208;5.488;2023-05-10T12:05:04;21.60;94.90
25440;DHT22;13365;52.208;5.488;2023-05-10T12:07:30;21.90;95.50
25440;DHT22;13365;52.208;5.488;2023-05-10T12:10:10;22.60;94.80
25440;DHT22;13365;52.208;5.488;2023-05-10T12:15:05;22.20;93.30
25440;DHT22;13365;52.208;5.488;2023-05-10T12:17:31;22.10;93.30
25440;DHT22;13365;52.208;5.488;2023-05-10T12:20:19;22.50;94.10
25440;DHT22;13365;52.208;5.488;2023-05-10T12:22:47;22.70;93.70
25440;DHT22;13365;52.208;5.488;2023-05-10T12:25:14;22.50;93.50
25440;DHT22;13365;52.208;5.488;2023-05-10T12:27:40;21.80;93.00
25440;DHT22;13365;52.208;5.488;2023-05-10T12:30:06;21.40;94.30
25440;DHT22;13365;52.208;5.488;2023-05-10T12:32:41;21.30;95.50
25440;DHT22;13365;52.208;5.488;2023-05-10T12:35:07;21.40;95.80
25440;DHT22;13365;52.208;5.488;2023-05-10T12:37:34;21.30;94.40
25440;DHT22;13365;52.208;5.488;2023-05-10T12:40:06;20.90;94.90
25440;DHT22;13365;52.208;5.488;2023-05-10T12:42:33;20.90;95.50
25440;DHT22;13365;52.208;5.488;2023-05-10T12:44:59;20.90;95.30
25440;DHT22;13365;52.208;5.488;2023-05-10T12:47:25;20.70;95.20
25440;DHT22;13365;52.208;5.488;2023-05-10T12:49:50;21.00;95.50
25440;DHT22;13365;52.208;5.488;2023-05-10T12:52:16;21.20;94.80
25440;DHT22;13365;52.208;5.488;2023-05-10T12:54:42;21.00;94.80
25440;DHT22;13365;52.208;5.488;2023-05-10T12:57:07;21.00;95.10
25440;DHT22;13365;52.208;5.488;2023-05-10T12:59:33;21.30;95.00
25440;DHT22;13365;52.208;5.488;2023-05-10T13:01:58;21.50;94.20
25440;DHT22;13365;52.208;5.488;2023-05-10T13:04:24;21.40;93.10
25440;DHT22;13365;52.208;5.488;2023-05-10T13:06:49;21.60;94.30
25440;DHT22;13365;52.208;5.488;2023-05-10T13:09:15;21.50;93.70
25440;DHT22;13365;52.208;5.488;2023-05-10T13:11:41;21.80;93.90
25440;DHT22;13365;52.208;5.488;2023-05-10T13:14:06;21.70;92.60
25440;DHT22;13365;52.208;5.488;2023-05-10T13:16:32;21.80;92.40
25440;DHT22;13365;52.208;5.488;2023-05-10T13:18:57;21.70;91.90
25440;DHT22;13365;52.208;5.488;2023-05-10T13:21:23;21.90;92.30
25440;DHT22;13365;52.208;5.488;2023-05-10T13:23:50;21.70;91.90
25440;DHT22;13365;52.208;5.488;2023-05-10T13:26:16;21.60;93.00
25440;DHT22;13365;52.208;5.488;2023-05-10T13:28:41;21.50;93.30
25440;DHT22;13365;52.208;5.488;2023-05-10T13:31:07;21.30;92.90
25440;DHT22;13365;52.208;5.488;2023-05-10T13:33:33;21.40;93.60
25440;DHT22;13365;52.208;5.488;2023-05-10T13:35:58;21.70;93.20
25440;DHT22;13365;52.208;5.488;2023-05-10T13:38:24;21.70;92.80
25440;DHT22;13365;52.208;5.488;2023-05-10T13:40:49;21.50;92.90
25440;DHT22;13365;52.208;5.488;2023-05-10T13:43:18;21.30;92.80
25440;DHT22;13365;52.208;5.488;2023-05-10T13:45:43;21.70;93.20
25440;DHT22;13365;52.208;5.488;2023-05-10T13:48:09;21.20;92.10
25440;DHT22;13365;52.208;5.488;2023-05-10T13:50:34;20.90;93.10
25440;DHT22;13365;52.208;5.488;2023-05-10T13:53:00;20.80;93.30
25440;DHT22;13365;52.208;5.488;2023-05-10T13:55:25;20.80;93.70
25440;DHT22;13365;52.208;5.488;2023-05-10T13:57:51;20.80;93.80
25440;DHT22;13365;52.208;5.488;2023-05-10T14:00:17;20.70;94.10
25440;DHT22;13365;52.208;5.488;2023-05-10T14:02:42;20.40;95.20
25440;DHT22;13365;52.208;5.488;2023-05-10T14:05:08;20.30;95.80
25440;DHT22;13365;52.208;5.488;2023-05-10T14:07:34;19.80;96.80
25440;DHT22;13365;52.208;5.488;2023-05-10T14:10:00;19.60;97.60
25440;DHT22;13365;52.208;5.488;2023-05-10T14:12:25;19.50;98.20
25440;DHT22;13365;52.208;5.488;2023-05-10T14:14:51;19.50;98.50
25440;DHT22;13365;52.208;5.488;2023-05-10T14:17:17;19.20;98.60
25440;DHT22;13365;52.208;5.488;2023-05-10T14:19:43;19.00;99.40
25440;DHT22;13365;52.208;5.488;2023-05-10T14:22:08;18.80;99.30
25440;DHT22;13365;52.208;5.488;2023-05-10T14:24:34;19.30;99.90
25440;DHT22;13365;52.208;5.488;2023-05-10T14:26:59;19.40;99.80
25440;DHT22;13365;52.208;5.488;2023-05-10T14:29:26;19.70;99.30
25440;DHT22;13365;52.208;5.488;2023-05-10T14:31:52;19.70;98.90
25440;DHT22;13365;52.208;5.488;2023-05-10T14:34:18;19.20;98.80
25440;DHT22;13365;52.208;5.488;2023-05-10T14:36:43;19.00;99.40
25440;DHT22;13365;52.208;5.488;2023-05-10T14:39:09;18.70;99.90
25440;DHT22;13365;52.208;5.488;2023-05-10T14:41:35;19.00;99.90
25440;DHT22;13365;52.208;5.488;2023-05-10T14:44:01;19.30;99.90
25440;DHT22;13365;52.208;5.488;2023-05-10T14:46:28;19.40;99.70
25440;DHT22;13365;52.208;5.488;2023-05-10T14:48:55;19.10;99.70
25440;DHT22;13365;52.208;5.488;2023-05-10T14:51:21;18.90;99.90
25440;DHT22;13365;52.208;5.488;2023-05-10T14:53:48;19.10;99.90
25440;DHT22;13365;52.208;5.488;2023-05-10T14:56:15;19.50;99.90
25440;DHT22;13365;52.208;5.488;2023-05-10T14:58:40;19.80;99.90
25440;DHT22;13365;52.208;5.488;2023-05-10T15:01:06;20.00;99.80
25440;DHT22;13365;52.208;5.488;2023-05-10T15:03:31;19.70;99.40
25440;DHT22;13365;52.208;5.488;2023-05-10T15:05:57;19.70;99.70
25440;DHT22;13365;52.208;5.488;2023-05-10T15:08:23;19.80;99.90
25440;DHT22;13365;52.208;5.488;2023-05-10T15:10:50;19.60;99.90
25440;DHT22;13365;52.208;5.488;2023-05-10T15:13:16;19.60;99.90
25440;DHT22;13365;52.208;5.488;2023-05-10T15:15:41;19.60;99.90
25440;DHT22;13365;52.208;5.488;2023-05-10T15:18:11;19.70;99.90
25440;DHT22;13365;52.208;5.488;2023-05-10T15:20:36;19.60;99.90
25440;DHT22;13365;52.208;5.488;2023-05-10T15:23:02;19.30;99.90
25440;DHT22;13365;52.208;5.488;2023-05-10T15:25:28;19.50;99.90
25440;DHT22;13365;52.208;5.488;2023-05-10T15:27:55;19.70;99.90
25440;DHT22;13365;52.208;5.488;2023-05-10T15:30:21;19.50;99.90
25440;DHT22;13365;52.208;5.488;2023-05-10T15:32:46;19.50;99.90
25440;DHT22;13365;52.208;5.488;2023-05-10T15:35:12;19.70;99.90
25440;DHT22;13365;52.208;5.488;2023-05-10T15:37:39;19.40;99.90
25440;DHT22;13365;52.208;5.488;2023-05-10T15:40:05;19.70;99.90
25440;DHT22;13365;52.208;5.488;2023-05-10T15:42:30;19.50;99.90
25440;DHT22;13365;52.208;5.488;2023-05-10T15:44:57;19.30;99.90
25440;DHT22;13365;52.208;5.488;2023-05-10T15:47:23;19.00;99.90
25440;DHT22;13365;52.208;5.488;2023-05-10T15:49:48;19.00;99.90
25440;DHT22;13365;52.208;5.488;2023-05-10T15:52:14;18.90;99.90
25440;DHT22;13365;52.208;5.488;2023-05-10T15:54:40;19.20;99.90